sensor_id;sensor_type;location;lat;lon;timestamp;P1;durP1;ratioP1;P2;durP2;ratioP2
18146;SDS011;9199;48.832;9.182;2023-08-24T00:01:37;11.87;;;8.10;;
18146;SDS011;9199;48.832;9.182;2023-08-24T00:04:03;13.70;;;8.30;;
18146;SDS011;9199;48.832;9.182;2023-08-24T00:06:30;11.10;;;8.80;;
18146;SDS011;9199;48.832;9.182;2023-08-24T00:08:57;11.50;;;7.70;;
18146;SDS011;9199;48.832;9.182;2023-08-24T00:11:25;12.90;;;8.05;;
18146;SDS011;9199;48.832;9.182;2023-08-24T00:13:52;11.53;;;8.30;;
18146;SDS011;9199;48.832;9.182;2023-08-24T00:16:19;11.32;;;8.25;;
18146;SDS011;9199;48.832;9.182;2023-08-24T00:18:46;9.55;;;7.63;;
18146;SDS011;9199;48.832;9.182;2023-08-24T00:21:13;11.48;;;8.15;;
18146;SDS011;9199;48.832;9.182;2023-08-24T00:23:41;13.52;;;8.10;;
18146;SDS011;9199;48.832;9.182;2023-08-24T00:26:08;10.43;;;8.10;;
18146;SDS011;9199;48.832;9.182;2023-08-24T00:28:36;9.93;;;8.05;;
18146;SDS011;9199;48.832;9.182;2023-08-24T00:31:03;10.95;;;7.35;;
18146;SDS011;9199;48.832;9.182;2023-08-24T00:33:30;11.60;;;7.97;;
18146;SDS011;9199;48.832;9.182;2023-08-24T00:35:59;11.32;;;8.25;;
18146;SDS011;9199;48.832;9.182;2023-08-24T00:38:26;11.40;;;8.33;;
18146;SDS011;9199;48.832;9.182;2023-08-24T00:40:53;12.23;;;8.27;;
18146;SDS011;9199;48.832;9.182;2023-08-24T00:43:21;10.55;;;7.93;;
18146;SDS011;9199;48.832;9.182;2023-08-24T00:45:50;12.20;;;7.95;;
18146;SDS011;9199;48.832;9.182;2023-08-24T00:48:18;14.63;;;8.35;;
18146;SDS011;9199;48.832;9.182;2023-08-24T00:50:45;11.67;;;8.03;;
18146;SDS011;9199;48.832;9.182;2023-08-24T00:53:12;12.73;;;8.75;;
18146;SDS011;9199;48.832;9.182;2023-08-24T00:55:38;12.65;;;8.63;;
18146;SDS011;9199;48.832;9.182;2023-08-24T00:58:05;11.05;;;8.32;;
18146;SDS011;9199;48.832;9.182;2023-08-24T01:00:35;11.30;;;8.23;;
18146;SDS011;9199;48.832;9.182;2023-08-24T01:03:04;12.13;;;8.70;;
18146;SDS011;9199;48.832;9.182;2023-08-24T01:05:30;14.70;;;9.07;;
18146;SDS011;9199;48.832;9.182;2023-08-24T01:07:57;13.60;;;8.73;;
18146;SDS011;9199;48.832;9.182;2023-08-24T01:10:24;11.40;;;8.25;;
18146;SDS011;9199;48.832;9.182;2023-08-24T01:12:59;12.38;;;8.98;;
18146;SDS011;9199;48.832;9.182;2023-08-24T01:15:35;12.47;;;8.40;;
18146;SDS011;9199;48.832;9.182;2023-08-24T01:18:14;13.52;;;8.63;;
18146;SDS011;9199;48.832;9.182;2023-08-24T01:20:45;12.00;;;8.05;;
18146;SDS011;9199;48.832;9.182;2023-08-24T01:23:18;10.25;;;7.82;;
18146;SDS011;9199;48.832;9.182;2023-08-24T01:25:59;11.55;;;7.85;;
18146;SDS011;9199;48.832;9.182;2023-08-24T01:28:30;12.27;;;7.90;;
18146;SDS011;9199;48.832;9.182;2023-08-24T01:30:57;11.38;;;7.80;;
18146;SDS011;9199;48.832;9.182;2023-08-24T01:33:24;12.45;;;8.05;;
18146;SDS011;9199;48.832;9.182;2023-08-24T01:35:51;11.30;;;8.70;;
18146;SDS011;9199;48.832;9.182;2023-08-24T01:38:18;13.23;;;8.63;;
18146;SDS011;9199;48.832;9.182;2023-08-24T01:40:50;14.60;;;8.93;;
18146;SDS011;9199;48.832;9.182;2023-08-24T01:43:25;13.25;;;8.98;;
18146;SDS011;9199;48.832;9.182;2023-08-24T01:45:55;11.95;;;8.75;;
18146;SDS011;9199;48.832;9.182;2023-08-24T01:48:24;10.85;;;8.65;;
18146;SDS011;9199;48.832;9.182;2023-08-24T01:50:51;11.48;;;8.75;;
18146;SDS011;9199;48.832;9.182;2023-08-24T01:53:18;15.70;;;9.30;;
18146;SDS011;9199;48.832;9.182;2023-08-24T01:55:45;13.15;;;8.95;;
18146;SDS011;9199;48.832;9.182;2023-08-24T01:58:11;13.10;;;8.88;;
18146;SDS011;9199;48.832;9.182;2023-08-24T02:00:39;11.70;;;8.82;;
18146;SDS011;9199;48.832;9.182;2023-08-24T02:03:06;11.77;;;9.40;;
18146;SDS011;9199;48.832;9.182;2023-08-24T02:05:33;14.83;;;9.43;;
18146;SDS011;9199;48.832;9.182;2023-08-24T02:08:00;14.68;;;9.00;;
18146;SDS011;9199;48.832;9.182;2023-08-24T02:10:26;12.02;;;8.30;;
18146;SDS011;9199;48.832;9.182;2023-08-24T02:12:53;12.25;;;9.00;;
18146;SDS011;9199;48.832;9.182;2023-08-24T02:15:20;11.50;;;8.43;;
18146;SDS011;9199;48.832;9.182;2023-08-24T02:17:48;11.33;;;8.30;;
18146;SDS011;9199;48.832;9.182;2023-08-24T02:20:15;12.93;;;8.85;;
18146;SDS011;9199;48.832;9.182;2023-08-24T02:22:42;13.02;;;8.75;;
18146;SDS011;9199;48.832;9.182;2023-08-24T02:25:09;15.82;;;9.55;;
18146;SDS011;9199;48.832;9.182;2023-08-24T02:27:36;12.55;;;9.48;;
18146;SDS011;9199;48.832;9.182;2023-08-24T02:30:03;13.30;;;9.73;;
18146;SDS011;9199;48.832;9.182;2023-08-24T02:32:30;15.13;;;9.82;;
18146;SDS011;9199;48.832;9.182;2023-08-24T02:34:58;13.40;;;9.52;;
18146;SDS011;9199;48.832;9.182;2023-08-24T02:37:25;11.90;;;9.85;;
18146;SDS011;9199;48.832;9.182;2023-08-24T02:39:52;11.52;;;9.20;;
18146;SDS011;9199;48.832;9.182;2023-08-24T02:42:19;13.17;;;8.50;;
18146;SDS011;9199;48.832;9.182;2023-08-24T02:44:45;13.07;;;8.77;;
18146;SDS011;9199;48.832;9.182;2023-08-24T02:47:12;11.07;;;8.90;;
18146;SDS011;9199;48.832;9.182;2023-08-24T02:49:39;11.45;;;9.05;;
18146;SDS011;9199;48.832;9.182;2023-08-24T02:52:07;14.18;;;9.00;;
18146;SDS011;9199;48.832;9.182;2023-08-24T02:54:34;13.43;;;8.57;;
18146;SDS011;9199;48.832;9.182;2023-08-24T02:57:01;11.45;;;8.82;;
18146;SDS011;9199;48.832;9.182;2023-08-24T02:59:28;12.00;;;8.48;;
18146;SDS011;9199;48.832;9.182;2023-08-24T03:01:54;11.68;;;8.48;;
18146;SDS011;9199;48.832;9.182;2023-08-24T03:04:21;14.18;;;8.90;;
18146;SDS011;9199;48.832;9.182;2023-08-24T03:06:48;10.00;;;8.57;;
18146;SDS011;9199;48.832;9.182;2023-08-24T03:09:16;11.35;;;9.10;;
18146;SDS011;9199;48.832;9.182;2023-08-24T03:11:42;13.05;;;9.27;;
18146;SDS011;9199;48.832;9.182;2023-08-24T03:14:09;12.23;;;9.35;;
18146;SDS011;9199;48.832;9.182;2023-08-24T03:16:37;12.63;;;9.23;;
18146;SDS011;9199;48.832;9.182;2023-08-24T03:19:04;14.33;;;9.63;;
18146;SDS011;9199;48.832;9.182;2023-08-24T03:21:30;15.15;;;9.95;;
18146;SDS011;9199;48.832;9.182;2023-08-24T03:23:57;12.13;;;9.43;;
18146;SDS011;9199;48.832;9.182;2023-08-24T03:26:25;13.15;;;9.38;;
18146;SDS011;9199;48.832;9.182;2023-08-24T03:28:52;12.48;;;9.63;;
18146;SDS011;9199;48.832;9.182;2023-08-24T03:31:19;14.73;;;9.90;;
18146;SDS011;9199;48.832;9.182;2023-08-24T03:33:45;13.43;;;9.75;;
18146;SDS011;9199;48.832;9.182;2023-08-24T03:36:12;10.98;;;9.43;;
18146;SDS011;9199;48.832;9.182;2023-08-24T03:38:39;11.18;;;9.57;;
18146;SDS011;9199;48.832;9.182;2023-08-24T03:41:06;11.93;;;8.95;;
18146;SDS011;9199;48.832;9.182;2023-08-24T03:43:34;11.23;;;9.37;;
18146;SDS011;9199;48.832;9.182;2023-08-24T03:46:02;10.10;;;9.10;;
18146;SDS011;9199;48.832;9.182;2023-08-24T03:48:30;13.95;;;8.70;;
18146;SDS011;9199;48.832;9.182;2023-08-24T03:50:57;9.93;;;8.52;;
18146;SDS011;9199;48.832;9.182;2023-08-24T03:53:25;15.45;;;9.20;;
18146;SDS011;9199;48.832;9.182;2023-08-24T03:55:52;9.77;;;8.77;;
18146;SDS011;9199;48.832;9.182;2023-08-24T03:58:19;11.65;;;9.27;;
18146;SDS011;9199;48.832;9.182;2023-08-24T04:00:47;10.90;;;8.90;;
18146;SDS011;9199;48.832;9.182;2023-08-24T04:03:13;11.77;;;9.25;;
18146;SDS011;9199;48.832;9.182;2023-08-24T04:05:40;10.63;;;9.35;;
18146;SDS011;9199;48.832;9.182;2023-08-24T04:08:07;11.97;;;9.30;;
18146;SDS011;9199;48.832;9.182;2023-08-24T04:10:34;11.60;;;8.85;;
18146;SDS011;9199;48.832;9.182;2023-08-24T04:13:01;14.95;;;8.70;;
18146;SDS011;9199;48.832;9.182;2023-08-24T04:15:27;12.07;;;8.80;;
18146;SDS011;9199;48.832;9.182;2023-08-24T04:17:55;12.63;;;9.50;;
18146;SDS011;9199;48.832;9.182;2023-08-24T04:20:22;10.93;;;8.83;;
18146;SDS011;9199;48.832;9.182;2023-08-24T04:22:49;11.30;;;9.00;;
18146;SDS011;9199;48.832;9.182;2023-08-24T04:25:16;13.68;;;9.35;;
18146;SDS011;9199;48.832;9.182;2023-08-24T04:27:43;12.50;;;8.77;;
18146;SDS011;9199;48.832;9.182;2023-08-24T04:30:10;13.98;;;8.45;;
18146;SDS011;9199;48.832;9.182;2023-08-24T04:32:38;12.17;;;8.53;;
18146;SDS011;9199;48.832;9.182;2023-08-24T04:35:07;13.95;;;9.68;;
18146;SDS011;9199;48.832;9.182;2023-08-24T04:37:35;12.43;;;8.52;;
18146;SDS011;9199;48.832;9.182;2023-08-24T04:40:02;10.63;;;8.35;;
18146;SDS011;9199;48.832;9.182;2023-08-24T04:42:29;11.38;;;8.70;;
18146;SDS011;9199;48.832;9.182;2023-08-24T04:44:56;12.60;;;8.60;;
18146;SDS011;9199;48.832;9.182;2023-08-24T04:47:23;13.07;;;9.13;;
18146;SDS011;9199;48.832;9.182;2023-08-24T04:49:49;10.98;;;8.48;;
18146;SDS011;9199;48.832;9.182;2023-08-24T04:52:17;11.90;;;9.05;;
18146;SDS011;9199;48.832;9.182;2023-08-24T04:54:44;10.60;;;8.38;;
18146;SDS011;9199;48.832;9.182;2023-08-24T04:57:11;10.90;;;8.87;;
18146;SDS011;9199;48.832;9.182;2023-08-24T04:59:38;11.10;;;8.85;;
18146;SDS011;9199;48.832;9.182;2023-08-24T05:02:04;12.07;;;8.40;;
18146;SDS011;9199;48.832;9.182;2023-08-24T05:04:31;12.82;;;8.23;;
18146;SDS011;9199;48.832;9.182;2023-08-24T05:06:58;13.07;;;8.10;;
18146;SDS011;9199;48.832;9.182;2023-08-24T05:09:26;12.00;;;7.90;;
18146;SDS011;9199;48.832;9.182;2023-08-24T05:11:53;12.80;;;8.27;;
18146;SDS011;9199;48.832;9.182;2023-08-24T05:14:20;14.20;;;8.07;;
18146;SDS011;9199;48.832;9.182;2023-08-24T05:16:46;12.75;;;7.95;;
18146;SDS011;9199;48.832;9.182;2023-08-24T05:19:13;10.43;;;7.80;;
18146;SDS011;9199;48.832;9.182;2023-08-24T05:21:40;10.00;;;7.23;;
18146;SDS011;9199;48.832;9.182;2023-08-24T05:24:06;10.27;;;7.72;;
18146;SDS011;9199;48.832;9.182;2023-08-24T05:26:34;10.52;;;7.50;;
18146;SDS011;9199;48.832;9.182;2023-08-24T05:29:01;11.77;;;7.93;;
18146;SDS011;9199;48.832;9.182;2023-08-24T05:31:28;10.90;;;7.50;;
18146;SDS011;9199;48.832;9.182;2023-08-24T05:33:54;8.90;;;7.43;;
18146;SDS011;9199;48.832;9.182;2023-08-24T05:36:21;9.85;;;7.20;;
18146;SDS011;9199;48.832;9.182;2023-08-24T05:38:48;11.52;;;8.10;;
18146;SDS011;9199;48.832;9.182;2023-08-24T05:41:19;9.18;;;7.13;;
18146;SDS011;9199;48.832;9.182;2023-08-24T05:43:47;9.80;;;7.50;;
18146;SDS011;9199;48.832;9.182;2023-08-24T05:46:16;11.67;;;7.13;;
18146;SDS011;9199;48.832;9.182;2023-08-24T05:48:43;11.85;;;7.75;;
18146;SDS011;9199;48.832;9.182;2023-08-24T05:51:09;11.10;;;7.43;;
18146;SDS011;9199;48.832;9.182;2023-08-24T05:53:37;12.57;;;7.60;;
18146;SDS011;9199;48.832;9.182;2023-08-24T05:56:05;12.00;;;7.72;;
18146;SDS011;9199;48.832;9.182;2023-08-24T05:58:32;12.67;;;7.63;;
18146;SDS011;9199;48.832;9.182;2023-08-24T06:01:00;12.02;;;7.63;;
18146;SDS011;9199;48.832;9.182;2023-08-24T06:03:27;13.55;;;7.57;;
18146;SDS011;9199;48.832;9.182;2023-08-24T06:05:54;12.27;;;7.57;;
18146;SDS011;9199;48.832;9.182;2023-08-24T06:08:27;11.40;;;7.43;;
18146;SDS011;9199;48.832;9.182;2023-08-24T06:10:53;11.83;;;7.50;;
18146;SDS011;9199;48.832;9.182;2023-08-24T06:13:20;11.65;;;7.70;;
18146;SDS011;9199;48.832;9.182;2023-08-24T06:15:47;11.20;;;7.68;;
18146;SDS011;9199;48.832;9.182;2023-08-24T06:18:15;12.43;;;7.50;;
18146;SDS011;9199;48.832;9.182;2023-08-24T06:20:42;12.23;;;7.63;;
18146;SDS011;9199;48.832;9.182;2023-08-24T06:23:09;11.77;;;7.73;;
18146;SDS011;9199;48.832;9.182;2023-08-24T06:25:35;11.23;;;7.28;;
18146;SDS011;9199;48.832;9.182;2023-08-24T06:28:02;13.77;;;7.80;;
18146;SDS011;9199;48.832;9.182;2023-08-24T06:30:29;16.95;;;7.78;;
18146;SDS011;9199;48.832;9.182;2023-08-24T06:33:02;12.98;;;7.60;;
18146;SDS011;9199;48.832;9.182;2023-08-24T06:35:30;12.77;;;8.20;;
18146;SDS011;9199;48.832;9.182;2023-08-24T06:37:58;13.85;;;7.72;;
18146;SDS011;9199;48.832;9.182;2023-08-24T06:40:24;11.98;;;7.57;;
18146;SDS011;9199;48.832;9.182;2023-08-24T06:42:51;10.30;;;7.40;;
18146;SDS011;9199;48.832;9.182;2023-08-24T06:45:18;16.10;;;8.05;;
18146;SDS011;9199;48.832;9.182;2023-08-24T06:47:44;15.10;;;7.10;;
18146;SDS011;9199;48.832;9.182;2023-08-24T06:50:11;15.18;;;7.00;;
18146;SDS011;9199;48.832;9.182;2023-08-24T06:52:39;14.50;;;7.35;;
18146;SDS011;9199;48.832;9.182;2023-08-24T06:55:07;10.40;;;7.38;;
18146;SDS011;9199;48.832;9.182;2023-08-24T06:57:34;11.75;;;6.90;;
18146;SDS011;9199;48.832;9.182;2023-08-24T07:00:01;10.33;;;7.33;;
18146;SDS011;9199;48.832;9.182;2023-08-24T07:02:31;13.23;;;7.65;;
18146;SDS011;9199;48.832;9.182;2023-08-24T07:04:58;15.73;;;7.53;;
18146;SDS011;9199;48.832;9.182;2023-08-24T07:07:26;15.05;;;7.50;;
18146;SDS011;9199;48.832;9.182;2023-08-24T07:09:54;11.52;;;6.80;;
18146;SDS011;9199;48.832;9.182;2023-08-24T07:12:20;11.40;;;7.23;;
18146;SDS011;9199;48.832;9.182;2023-08-24T07:14:47;11.73;;;7.60;;
18146;SDS011;9199;48.832;9.182;2023-08-24T07:17:14;12.15;;;7.57;;
18146;SDS011;9199;48.832;9.182;2023-08-24T07:19:40;14.25;;;7.45;;
18146;SDS011;9199;48.832;9.182;2023-08-24T07:22:07;10.88;;;6.43;;
18146;SDS011;9199;48.832;9.182;2023-08-24T07:24:34;12.13;;;7.00;;
18146;SDS011;9199;48.832;9.182;2023-08-24T07:27:02;9.75;;;6.10;;
18146;SDS011;9199;48.832;9.182;2023-08-24T07:29:29;8.80;;;5.63;;
18146;SDS011;9199;48.832;9.182;2023-08-24T07:31:56;8.35;;;5.60;;
18146;SDS011;9199;48.832;9.182;2023-08-24T07:34:23;8.35;;;5.30;;
18146;SDS011;9199;48.832;9.182;2023-08-24T07:36:50;9.00;;;5.60;;
18146;SDS011;9199;48.832;9.182;2023-08-24T07:39:16;8.18;;;5.90;;
18146;SDS011;9199;48.832;9.182;2023-08-24T07:41:44;8.88;;;5.28;;
18146;SDS011;9199;48.832;9.182;2023-08-24T07:44:12;10.95;;;5.00;;
18146;SDS011;9199;48.832;9.182;2023-08-24T07:46:39;7.20;;;5.25;;
18146;SDS011;9199;48.832;9.182;2023-08-24T07:49:06;8.30;;;5.23;;
18146;SDS011;9199;48.832;9.182;2023-08-24T07:51:32;8.70;;;5.43;;
18146;SDS011;9199;48.832;9.182;2023-08-24T07:53:59;8.18;;;4.93;;
18146;SDS011;9199;48.832;9.182;2023-08-24T07:56:26;9.18;;;4.90;;
18146;SDS011;9199;48.832;9.182;2023-08-24T07:58:53;9.75;;;4.93;;
18146;SDS011;9199;48.832;9.182;2023-08-24T08:01:21;9.20;;;4.33;;
18146;SDS011;9199;48.832;9.182;2023-08-24T08:03:47;14.50;;;5.40;;
18146;SDS011;9199;48.832;9.182;2023-08-24T08:06:14;9.35;;;4.50;;
18146;SDS011;9199;48.832;9.182;2023-08-24T08:08:41;9.60;;;4.20;;
18146;SDS011;9199;48.832;9.182;2023-08-24T08:11:09;9.82;;;4.68;;
18146;SDS011;9199;48.832;9.182;2023-08-24T08:13:36;8.43;;;4.23;;
18146;SDS011;9199;48.832;9.182;2023-08-24T08:16:03;8.13;;;4.53;;
18146;SDS011;9199;48.832;9.182;2023-08-24T08:18:32;8.15;;;4.38;;
18146;SDS011;9199;48.832;9.182;2023-08-24T08:20:59;8.07;;;4.28;;
18146;SDS011;9199;48.832;9.182;2023-08-24T08:23:27;7.53;;;4.30;;
18146;SDS011;9199;48.832;9.182;2023-08-24T08:25:53;6.37;;;4.40;;
18146;SDS011;9199;48.832;9.182;2023-08-24T08:28:20;8.90;;;4.20;;
18146;SDS011;9199;48.832;9.182;2023-08-24T08:30:47;7.85;;;4.18;;
18146;SDS011;9199;48.832;9.182;2023-08-24T08:33:15;10.57;;;4.32;;
18146;SDS011;9199;48.832;9.182;2023-08-24T08:35:43;7.65;;;4.20;;
18146;SDS011;9199;48.832;9.182;2023-08-24T08:38:10;7.30;;;3.73;;
18146;SDS011;9199;48.832;9.182;2023-08-24T08:40:37;8.43;;;4.00;;
18146;SDS011;9199;48.832;9.182;2023-08-24T08:43:04;7.25;;;4.15;;
18146;SDS011;9199;48.832;9.182;2023-08-24T08:45:31;8.45;;;4.22;;
18146;SDS011;9199;48.832;9.182;2023-08-24T08:47:58;7.93;;;3.75;;
18146;SDS011;9199;48.832;9.182;2023-08-24T08:50:26;6.90;;;4.03;;
18146;SDS011;9199;48.832;9.182;2023-08-24T08:52:55;8.85;;;4.05;;
18146;SDS011;9199;48.832;9.182;2023-08-24T08:55:23;7.80;;;3.97;;
18146;SDS011;9199;48.832;9.182;2023-08-24T08:57:51;11.00;;;4.03;;
18146;SDS011;9199;48.832;9.182;2023-08-24T09:00:23;7.47;;;3.88;;
18146;SDS011;9199;48.832;9.182;2023-08-24T09:02:51;9.03;;;4.03;;
18146;SDS011;9199;48.832;9.182;2023-08-24T09:05:19;11.13;;;4.30;;
18146;SDS011;9199;48.832;9.182;2023-08-24T09:07:46;7.22;;;3.97;;
18146;SDS011;9199;48.832;9.182;2023-08-24T09:10:15;6.68;;;4.10;;
18146;SDS011;9199;48.832;9.182;2023-08-24T09:12:42;9.95;;;4.00;;
18146;SDS011;9199;48.832;9.182;2023-08-24T09:15:09;7.80;;;4.37;;
18146;SDS011;9199;48.832;9.182;2023-08-24T09:17:36;7.68;;;4.30;;
18146;SDS011;9199;48.832;9.182;2023-08-24T09:20:08;9.10;;;3.95;;
18146;SDS011;9199;48.832;9.182;2023-08-24T09:22:36;8.25;;;4.07;;
18146;SDS011;9199;48.832;9.182;2023-08-24T09:25:06;7.30;;;4.00;;
18146;SDS011;9199;48.832;9.182;2023-08-24T09:27:36;8.97;;;4.20;;
18146;SDS011;9199;48.832;9.182;2023-08-24T09:30:03;6.05;;;3.85;;
18146;SDS011;9199;48.832;9.182;2023-08-24T09:32:32;9.68;;;3.90;;
18146;SDS011;9199;48.832;9.182;2023-08-24T09:35:01;8.43;;;4.50;;
18146;SDS011;9199;48.832;9.182;2023-08-24T09:37:31;7.43;;;4.35;;
18146;SDS011;9199;48.832;9.182;2023-08-24T09:40:00;11.47;;;4.07;;
18146;SDS011;9199;48.832;9.182;2023-08-24T09:42:34;7.43;;;4.22;;
18146;SDS011;9199;48.832;9.182;2023-08-24T09:45:06;10.45;;;4.88;;
18146;SDS011;9199;48.832;9.182;2023-08-24T09:47:35;10.52;;;4.28;;
18146;SDS011;9199;48.832;9.182;2023-08-24T09:50:10;10.02;;;4.13;;
18146;SDS011;9199;48.832;9.182;2023-08-24T09:52:36;10.50;;;4.40;;
18146;SDS011;9199;48.832;9.182;2023-08-24T09:55:07;7.83;;;4.20;;
18146;SDS011;9199;48.832;9.182;2023-08-24T09:57:36;9.05;;;4.20;;
18146;SDS011;9199;48.832;9.182;2023-08-24T10:00:05;7.90;;;4.65;;
18146;SDS011;9199;48.832;9.182;2023-08-24T10:02:36;8.13;;;3.78;;
18146;SDS011;9199;48.832;9.182;2023-08-24T10:05:06;7.55;;;4.20;;
18146;SDS011;9199;48.832;9.182;2023-08-24T10:07:37;8.63;;;4.73;;
18146;SDS011;9199;48.832;9.182;2023-08-24T10:10:06;9.77;;;4.55;;
18146;SDS011;9199;48.832;9.182;2023-08-24T10:12:39;8.02;;;3.90;;
18146;SDS011;9199;48.832;9.182;2023-08-24T10:15:12;5.80;;;4.00;;
18146;SDS011;9199;48.832;9.182;2023-08-24T10:17:39;7.80;;;4.28;;
18146;SDS011;9199;48.832;9.182;2023-08-24T10:20:07;7.37;;;4.13;;
18146;SDS011;9199;48.832;9.182;2023-08-24T10:22:36;9.15;;;4.22;;
18146;SDS011;9199;48.832;9.182;2023-08-24T10:25:06;9.50;;;4.72;;
18146;SDS011;9199;48.832;9.182;2023-08-24T10:27:34;7.30;;;4.40;;
18146;SDS011;9199;48.832;9.182;2023-08-24T10:30:01;8.68;;;4.50;;
18146;SDS011;9199;48.832;9.182;2023-08-24T10:32:29;6.27;;;4.27;;
18146;SDS011;9199;48.832;9.182;2023-08-24T10:34:57;10.23;;;4.18;;
18146;SDS011;9199;48.832;9.182;2023-08-24T10:37:27;7.63;;;4.45;;
18146;SDS011;9199;48.832;9.182;2023-08-24T10:39:55;8.18;;;4.95;;
18146;SDS011;9199;48.832;9.182;2023-08-24T10:42:22;8.18;;;4.45;;
18146;SDS011;9199;48.832;9.182;2023-08-24T10:44:50;9.03;;;4.70;;
18146;SDS011;9199;48.832;9.182;2023-08-24T10:47:18;7.05;;;4.60;;
18146;SDS011;9199;48.832;9.182;2023-08-24T10:49:56;6.95;;;4.78;;
18146;SDS011;9199;48.832;9.182;2023-08-24T10:52:24;7.05;;;4.97;;
18146;SDS011;9199;48.832;9.182;2023-08-24T10:54:52;6.65;;;4.40;;
18146;SDS011;9199;48.832;9.182;2023-08-24T10:57:22;11.03;;;5.17;;
18146;SDS011;9199;48.832;9.182;2023-08-24T10:59:59;7.15;;;4.70;;
18146;SDS011;9199;48.832;9.182;2023-08-24T11:02:30;7.35;;;5.00;;
18146;SDS011;9199;48.832;9.182;2023-08-24T11:05:06;9.68;;;4.43;;
18146;SDS011;9199;48.832;9.182;2023-08-24T11:07:47;8.68;;;5.22;;
18146;SDS011;9199;48.832;9.182;2023-08-24T11:10:16;7.83;;;4.77;;
18146;SDS011;9199;48.832;9.182;2023-08-24T11:15:38;8.30;;;4.53;;
18146;SDS011;9199;48.832;9.182;2023-08-24T11:21:05;8.63;;;4.80;;
18146;SDS011;9199;48.832;9.182;2023-08-24T11:23:32;9.07;;;4.80;;
18146;SDS011;9199;48.832;9.182;2023-08-24T11:26:00;10.90;;;5.00;;
18146;SDS011;9199;48.832;9.182;2023-08-24T11:28:29;8.52;;;5.43;;
18146;SDS011;9199;48.832;9.182;2023-08-24T11:30:57;8.35;;;5.35;;
18146;SDS011;9199;48.832;9.182;2023-08-24T11:33:28;9.07;;;5.35;;
18146;SDS011;9199;48.832;9.182;2023-08-24T11:35:55;7.80;;;4.53;;
18146;SDS011;9199;48.832;9.182;2023-08-24T11:38:22;10.15;;;5.10;;
18146;SDS011;9199;48.832;9.182;2023-08-24T11:40:49;8.57;;;5.15;;
18146;SDS011;9199;48.832;9.182;2023-08-24T11:43:20;6.38;;;5.28;;
18146;SDS011;9199;48.832;9.182;2023-08-24T11:45:51;7.20;;;5.20;;
18146;SDS011;9199;48.832;9.182;2023-08-24T11:48:20;10.83;;;5.30;;
18146;SDS011;9199;48.832;9.182;2023-08-24T11:50:51;9.00;;;4.93;;
18146;SDS011;9199;48.832;9.182;2023-08-24T11:53:19;10.38;;;5.13;;
18146;SDS011;9199;48.832;9.182;2023-08-24T11:55:46;9.80;;;4.95;;
18146;SDS011;9199;48.832;9.182;2023-08-24T11:58:15;7.40;;;4.70;;
18146;SDS011;9199;48.832;9.182;2023-08-24T12:00:42;8.83;;;5.67;;
18146;SDS011;9199;48.832;9.182;2023-08-24T12:03:10;6.70;;;5.43;;
18146;SDS011;9199;48.832;9.182;2023-08-24T12:05:38;7.03;;;5.25;;
18146;SDS011;9199;48.832;9.182;2023-08-24T12:08:05;8.63;;;5.47;;
18146;SDS011;9199;48.832;9.182;2023-08-24T12:10:32;7.18;;;5.07;;
18146;SDS011;9199;48.832;9.182;2023-08-24T12:13:01;8.43;;;5.13;;
18146;SDS011;9199;48.832;9.182;2023-08-24T12:15:30;8.07;;;5.60;;
18146;SDS011;9199;48.832;9.182;2023-08-24T12:17:56;10.88;;;5.30;;
18146;SDS011;9199;48.832;9.182;2023-08-24T12:20:25;7.40;;;5.43;;
18146;SDS011;9199;48.832;9.182;2023-08-24T12:22:52;9.18;;;5.35;;
18146;SDS011;9199;48.832;9.182;2023-08-24T12:25:21;7.27;;;5.67;;
18146;SDS011;9199;48.832;9.182;2023-08-24T12:27:50;8.77;;;5.20;;
18146;SDS011;9199;48.832;9.182;2023-08-24T12:30:17;8.23;;;5.55;;
18146;SDS011;9199;48.832;9.182;2023-08-24T12:32:45;8.50;;;5.50;;
18146;SDS011;9199;48.832;9.182;2023-08-24T12:35:13;9.05;;;5.63;;
18146;SDS011;9199;48.832;9.182;2023-08-24T12:37:42;8.87;;;5.97;;
18146;SDS011;9199;48.832;9.182;2023-08-24T12:40:09;8.77;;;5.38;;
18146;SDS011;9199;48.832;9.182;2023-08-24T12:42:36;9.70;;;5.40;;
18146;SDS011;9199;48.832;9.182;2023-08-24T12:45:04;9.32;;;5.65;;
18146;SDS011;9199;48.832;9.182;2023-08-24T12:47:31;10.18;;;5.47;;
18146;SDS011;9199;48.832;9.182;2023-08-24T12:49:59;9.53;;;5.10;;
18146;SDS011;9199;48.832;9.182;2023-08-24T12:52:26;11.38;;;5.20;;
18146;SDS011;9199;48.832;9.182;2023-08-24T12:54:54;9.63;;;5.60;;
18146;SDS011;9199;48.832;9.182;2023-08-24T12:57:21;9.63;;;5.75;;
18146;SDS011;9199;48.832;9.182;2023-08-24T12:59:49;11.15;;;5.38;;
18146;SDS011;9199;48.832;9.182;2023-08-24T13:02:16;9.73;;;5.50;;
18146;SDS011;9199;48.832;9.182;2023-08-24T13:04:43;8.32;;;5.40;;
18146;SDS011;9199;48.832;9.182;2023-08-24T13:07:10;10.55;;;5.88;;
18146;SDS011;9199;48.832;9.182;2023-08-24T13:09:37;8.82;;;5.45;;
18146;SDS011;9199;48.832;9.182;2023-08-24T13:12:05;11.95;;;5.72;;
18146;SDS011;9199;48.832;9.182;2023-08-24T13:14:32;9.23;;;5.37;;
18146;SDS011;9199;48.832;9.182;2023-08-24T13:16:59;10.15;;;5.70;;
18146;SDS011;9199;48.832;9.182;2023-08-24T13:19:25;10.30;;;5.55;;
18146;SDS011;9199;48.832;9.182;2023-08-24T13:21:52;10.65;;;5.20;;
18146;SDS011;9199;48.832;9.182;2023-08-24T13:24:20;10.02;;;5.63;;
18146;SDS011;9199;48.832;9.182;2023-08-24T13:26:46;9.67;;;5.50;;
18146;SDS011;9199;48.832;9.182;2023-08-24T13:29:15;10.63;;;5.60;;
18146;SDS011;9199;48.832;9.182;2023-08-24T13:31:42;8.48;;;5.20;;
18146;SDS011;9199;48.832;9.182;2023-08-24T13:34:08;9.48;;;5.28;;
18146;SDS011;9199;48.832;9.182;2023-08-24T13:36:35;8.43;;;5.00;;
18146;SDS011;9199;48.832;9.182;2023-08-24T13:39:02;9.87;;;5.20;;
18146;SDS011;9199;48.832;9.182;2023-08-24T13:41:29;10.15;;;5.38;;
18146;SDS011;9199;48.832;9.182;2023-08-24T13:43:56;10.88;;;5.82;;
18146;SDS011;9199;48.832;9.182;2023-08-24T13:46:24;10.52;;;5.25;;
18146;SDS011;9199;48.832;9.182;2023-08-24T13:48:51;12.82;;;5.78;;
18146;SDS011;9199;48.832;9.182;2023-08-24T13:51:17;10.83;;;5.63;;
18146;SDS011;9199;48.832;9.182;2023-08-24T13:53:44;9.32;;;5.53;;
18146;SDS011;9199;48.832;9.182;2023-08-24T13:56:11;10.68;;;5.60;;
18146;SDS011;9199;48.832;9.182;2023-08-24T13:58:38;11.30;;;6.20;;
18146;SDS011;9199;48.832;9.182;2023-08-24T14:01:05;11.50;;;5.80;;
18146;SDS011;9199;48.832;9.182;2023-08-24T14:03:33;10.70;;;5.67;;
18146;SDS011;9199;48.832;9.182;2023-08-24T14:05:59;11.07;;;6.07;;
18146;SDS011;9199;48.832;9.182;2023-08-24T14:08:26;12.20;;;5.55;;
18146;SDS011;9199;48.832;9.182;2023-08-24T14:10:53;11.85;;;5.65;;
18146;SDS011;9199;48.832;9.182;2023-08-24T14:13:20;7.78;;;5.20;;
18146;SDS011;9199;48.832;9.182;2023-08-24T14:15:47;11.63;;;5.20;;
18146;SDS011;9199;48.832;9.182;2023-08-24T14:18:14;10.90;;;5.20;;
18146;SDS011;9199;48.832;9.182;2023-08-24T14:20:43;11.55;;;5.18;;
18146;SDS011;9199;48.832;9.182;2023-08-24T14:23:10;9.35;;;5.10;;
18146;SDS011;9199;48.832;9.182;2023-08-24T14:25:36;10.43;;;5.22;;
18146;SDS011;9199;48.832;9.182;2023-08-24T14:28:03;12.50;;;5.20;;
18146;SDS011;9199;48.832;9.182;2023-08-24T14:30:30;12.60;;;5.15;;
18146;SDS011;9199;48.832;9.182;2023-08-24T14:32:57;12.93;;;4.97;;
18146;SDS011;9199;48.832;9.182;2023-08-24T14:35:23;11.95;;;5.13;;
18146;SDS011;9199;48.832;9.182;2023-08-24T14:37:51;14.43;;;5.68;;
18146;SDS011;9199;48.832;9.182;2023-08-24T14:40:18;11.87;;;5.17;;
18146;SDS011;9199;48.832;9.182;2023-08-24T14:42:45;11.25;;;5.07;;
18146;SDS011;9199;48.832;9.182;2023-08-24T14:45:14;12.68;;;5.30;;
18146;SDS011;9199;48.832;9.182;2023-08-24T14:47:41;15.93;;;5.15;;
18146;SDS011;9199;48.832;9.182;2023-08-24T14:50:08;15.90;;;5.13;;
18146;SDS011;9199;48.832;9.182;2023-08-24T14:52:36;10.50;;;5.30;;
18146;SDS011;9199;48.832;9.182;2023-08-24T14:55:05;10.57;;;4.80;;
18146;SDS011;9199;48.832;9.182;2023-08-24T14:57:33;12.85;;;4.55;;
18146;SDS011;9199;48.832;9.182;2023-08-24T15:00:00;31.65;;;5.75;;
18146;SDS011;9199;48.832;9.182;2023-08-24T15:02:27;20.48;;;5.20;;